sensor_id;sensor_type;location;lat;lon;timestamp;P1;durP1;ratioP1;P2;durP2;ratioP2
10216;SDS011;5152;59.674;16.838;2023-03-04T00:00:01;3.43;;;2.27;;
10216;SDS011;5152;59.674;16.838;2023-03-04T00:02:28;4.50;;;2.83;;
10216;SDS011;5152;59.674;16.838;2023-03-04T00:04:56;7.37;;;2.30;;
10216;SDS011;5152;59.674;16.838;2023-03-04T00:07:23;5.73;;;3.10;;
10216;SDS011;5152;59.674;16.838;2023-03-04T00:09:50;2.23;;;0.83;;
10216;SDS011;5152;59.674;16.838;2023-03-04T00:12:17;3.20;;;1.70;;
10216;SDS011;5152;59.674;16.838;2023-03-04T00:14:44;2.80;;;1.90;;
10216;SDS011;5152;59.674;16.838;2023-03-04T00:17:10;2.93;;;1.93;;
10216;SDS011;5152;59.674;16.838;2023-03-04T00:19:37;4.17;;;2.90;;
10216;SDS011;5152;59.674;16.838;2023-03-04T00:22:06;2.03;;;1.40;;
10216;SDS011;5152;59.674;16.838;2023-03-04T00:24:33;5.27;;;2.23;;
10216;SDS011;5152;59.674;16.838;2023-03-04T00:27:00;4.13;;;2.60;;
10216;SDS011;5152;59.674;16.838;2023-03-04T00:29:27;3.77;;;1.50;;
10216;SDS011;5152;59.674;16.838;2023-03-04T00:31:54;4.87;;;2.37;;
10216;SDS011;5152;59.674;16.838;2023-03-04T00:34:21;1.60;;;0.47;;
10216;SDS011;5152;59.674;16.838;2023-03-04T00:36:48;3.70;;;1.07;;
10216;SDS011;5152;59.674;16.838;2023-03-04T00:39:16;5.30;;;1.77;;
10216;SDS011;5152;59.674;16.838;2023-03-04T00:41:43;11.27;;;3.73;;
10216;SDS011;5152;59.674;16.838;2023-03-04T00:44:10;6.00;;;2.80;;
10216;SDS011;5152;59.674;16.838;2023-03-04T00:46:37;2.47;;;1.60;;
10216;SDS011;5152;59.674;16.838;2023-03-04T00:49:04;4.97;;;2.97;;
10216;SDS011;5152;59.674;16.838;2023-03-04T00:51:31;3.73;;;1.57;;
10216;SDS011;5152;59.674;16.838;2023-03-04T00:53:58;6.43;;;2.00;;
10216;SDS011;5152;59.674;16.838;2023-03-04T00:56:27;3.47;;;2.57;;
10216;SDS011;5152;59.674;16.838;2023-03-04T00:58:54;3.40;;;2.40;;
10216;SDS011;5152;59.674;16.838;2023-03-04T01:01:21;5.63;;;3.30;;
10216;SDS011;5152;59.674;16.838;2023-03-04T01:03:48;5.53;;;2.20;;
10216;SDS011;5152;59.674;16.838;2023-03-04T01:06:15;2.57;;;1.70;;
10216;SDS011;5152;59.674;16.838;2023-03-04T01:08:42;3.07;;;1.67;;
10216;SDS011;5152;59.674;16.838;2023-03-04T01:11:08;6.40;;;1.90;;
10216;SDS011;5152;59.674;16.838;2023-03-04T01:13:37;1.73;;;1.40;;
10216;SDS011;5152;59.674;16.838;2023-03-04T01:16:04;3.50;;;2.00;;
10216;SDS011;5152;59.674;16.838;2023-03-04T01:18:32;3.87;;;1.00;;
10216;SDS011;5152;59.674;16.838;2023-03-04T01:20:59;4.50;;;1.27;;
10216;SDS011;5152;59.674;16.838;2023-03-04T01:23:26;4.70;;;2.30;;
10216;SDS011;5152;59.674;16.838;2023-03-04T01:25:53;4.20;;;1.70;;
10216;SDS011;5152;59.674;16.838;2023-03-04T01:28:20;5.20;;;1.73;;
10216;SDS011;5152;59.674;16.838;2023-03-04T01:30:48;1.90;;;0.83;;
10216;SDS011;5152;59.674;16.838;2023-03-04T01:33:15;1.50;;;1.13;;
10216;SDS011;5152;59.674;16.838;2023-03-04T01:35:42;3.00;;;1.97;;
10216;SDS011;5152;59.674;16.838;2023-03-04T01:38:09;8.77;;;1.50;;
10216;SDS011;5152;59.674;16.838;2023-03-04T01:40:36;2.73;;;1.53;;
10216;SDS011;5152;59.674;16.838;2023-03-04T01:43:04;3.70;;;2.37;;
10216;SDS011;5152;59.674;16.838;2023-03-04T01:45:30;1.57;;;1.23;;
10216;SDS011;5152;59.674;16.838;2023-03-04T01:47:59;3.70;;;2.47;;
10216;SDS011;5152;59.674;16.838;2023-03-04T01:50:27;3.10;;;1.23;;
10216;SDS011;5152;59.674;16.838;2023-03-04T01:52:56;3.97;;;1.77;;
10216;SDS011;5152;59.674;16.838;2023-03-04T01:55:23;3.80;;;1.40;;
10216;SDS011;5152;59.674;16.838;2023-03-04T01:57:50;3.70;;;0.90;;
10216;SDS011;5152;59.674;16.838;2023-03-04T02:00:19;2.03;;;1.30;;
10216;SDS011;5152;59.674;16.838;2023-03-04T02:02:52;7.33;;;1.70;;
10216;SDS011;5152;59.674;16.838;2023-03-04T02:05:21;3.23;;;2.17;;
10216;SDS011;5152;59.674;16.838;2023-03-04T02:07:49;1.80;;;0.80;;
10216;SDS011;5152;59.674;16.838;2023-03-04T02:10:17;4.97;;;2.03;;
10216;SDS011;5152;59.674;16.838;2023-03-04T02:12:44;1.30;;;0.90;;
10216;SDS011;5152;59.674;16.838;2023-03-04T02:15:11;2.83;;;1.67;;
10216;SDS011;5152;59.674;16.838;2023-03-04T02:17:39;2.10;;;1.50;;
10216;SDS011;5152;59.674;16.838;2023-03-04T02:20:08;3.97;;;1.40;;
10216;SDS011;5152;59.674;16.838;2023-03-04T02:22:54;2.73;;;1.53;;
10216;SDS011;5152;59.674;16.838;2023-03-04T02:25:25;3.33;;;1.03;;
10216;SDS011;5152;59.674;16.838;2023-03-04T02:27:58;2.57;;;1.00;;
10216;SDS011;5152;59.674;16.838;2023-03-04T02:30:25;4.23;;;1.37;;
10216;SDS011;5152;59.674;16.838;2023-03-04T02:32:52;2.83;;;1.10;;
10216;SDS011;5152;59.674;16.838;2023-03-04T02:35:19;6.30;;;1.37;;
10216;SDS011;5152;59.674;16.838;2023-03-04T02:37:46;3.10;;;1.07;;
10216;SDS011;5152;59.674;16.838;2023-03-04T02:40:14;5.87;;;1.10;;
10216;SDS011;5152;59.674;16.838;2023-03-04T02:42:44;2.60;;;1.37;;
10216;SDS011;5152;59.674;16.838;2023-03-04T02:45:31;5.90;;;1.57;;
10216;SDS011;5152;59.674;16.838;2023-03-04T02:48:01;1.67;;;1.20;;
10216;SDS011;5152;59.674;16.838;2023-03-04T02:50:29;0.90;;;0.33;;
10216;SDS011;5152;59.674;16.838;2023-03-04T02:52:59;1.70;;;1.03;;
10216;SDS011;5152;59.674;16.838;2023-03-04T02:55:26;1.53;;;0.57;;
10216;SDS011;5152;59.674;16.838;2023-03-04T02:57:53;3.50;;;1.13;;
10216;SDS011;5152;59.674;16.838;2023-03-04T03:00:20;1.97;;;0.80;;
10216;SDS011;5152;59.674;16.838;2023-03-04T03:02:49;3.63;;;0.70;;
10216;SDS011;5152;59.674;16.838;2023-03-04T03:05:16;3.17;;;0.60;;
10216;SDS011;5152;59.674;16.838;2023-03-04T03:07:43;1.87;;;0.97;;
10216;SDS011;5152;59.674;16.838;2023-03-04T03:10:10;13.13;;;1.43;;
10216;SDS011;5152;59.674;16.838;2023-03-04T03:12:37;4.87;;;0.70;;
10216;SDS011;5152;59.674;16.838;2023-03-04T03:15:05;6.97;;;0.93;;
10216;SDS011;5152;59.674;16.838;2023-03-04T03:17:32;2.10;;;0.97;;
10216;SDS011;5152;59.674;16.838;2023-03-04T03:20:01;1.70;;;0.77;;
10216;SDS011;5152;59.674;16.838;2023-03-04T03:22:28;2.07;;;0.77;;
10216;SDS011;5152;59.674;16.838;2023-03-04T03:24:55;1.37;;;1.00;;
10216;SDS011;5152;59.674;16.838;2023-03-04T03:27:22;1.07;;;0.70;;
10216;SDS011;5152;59.674;16.838;2023-03-04T03:29:49;2.93;;;1.00;;
10216;SDS011;5152;59.674;16.838;2023-03-04T03:32:16;3.33;;;0.83;;
10216;SDS011;5152;59.674;16.838;2023-03-04T03:34:42;2.30;;;0.90;;
10216;SDS011;5152;59.674;16.838;2023-03-04T03:37:11;1.33;;;0.90;;
10216;SDS011;5152;59.674;16.838;2023-03-04T03:39:38;1.73;;;0.70;;
10216;SDS011;5152;59.674;16.838;2023-03-04T03:42:05;0.70;;;0.67;;
10216;SDS011;5152;59.674;16.838;2023-03-04T03:44:32;4.00;;;0.80;;
10216;SDS011;5152;59.674;16.838;2023-03-04T03:46:59;2.03;;;1.00;;
10216;SDS011;5152;59.674;16.838;2023-03-04T03:49:26;1.70;;;0.93;;
10216;SDS011;5152;59.674;16.838;2023-03-04T03:51:53;3.10;;;0.70;;
10216;SDS011;5152;59.674;16.838;2023-03-04T03:54:21;0.80;;;0.60;;
10216;SDS011;5152;59.674;16.838;2023-03-04T03:56:48;1.07;;;0.67;;
10216;SDS011;5152;59.674;16.838;2023-03-04T03:59:15;1.20;;;0.70;;
10216;SDS011;5152;59.674;16.838;2023-03-04T04:01:42;2.27;;;1.10;;
10216;SDS011;5152;59.674;16.838;2023-03-04T04:04:09;1.43;;;0.70;;
10216;SDS011;5152;59.674;16.838;2023-03-04T04:06:36;1.63;;;0.77;;
10216;SDS011;5152;59.674;16.838;2023-03-04T04:09:02;4.23;;;1.10;;
10216;SDS011;5152;59.674;16.838;2023-03-04T04:11:31;1.90;;;0.50;;
10216;SDS011;5152;59.674;16.838;2023-03-04T04:14:00;3.00;;;0.97;;
10216;SDS011;5152;59.674;16.838;2023-03-04T04:16:26;0.97;;;0.60;;
10216;SDS011;5152;59.674;16.838;2023-03-04T04:18:53;1.00;;;0.60;;
10216;SDS011;5152;59.674;16.838;2023-03-04T04:21:20;2.50;;;0.77;;
10216;SDS011;5152;59.674;16.838;2023-03-04T04:23:47;2.90;;;0.73;;
10216;SDS011;5152;59.674;16.838;2023-03-04T04:26:14;1.20;;;0.67;;
10216;SDS011;5152;59.674;16.838;2023-03-04T04:28:42;2.13;;;0.93;;
10216;SDS011;5152;59.674;16.838;2023-03-04T04:31:09;1.23;;;0.90;;
10216;SDS011;5152;59.674;16.838;2023-03-04T04:33:36;2.80;;;0.63;;
10216;SDS011;5152;59.674;16.838;2023-03-04T04:36:03;1.30;;;0.70;;
10216;SDS011;5152;59.674;16.838;2023-03-04T04:38:30;0.73;;;0.33;;
10216;SDS011;5152;59.674;16.838;2023-03-04T04:40:58;2.33;;;0.93;;
10216;SDS011;5152;59.674;16.838;2023-03-04T04:43:25;2.87;;;1.00;;
10216;SDS011;5152;59.674;16.838;2023-03-04T04:45:53;2.90;;;0.83;;
10216;SDS011;5152;59.674;16.838;2023-03-04T04:48:20;0.47;;;0.27;;
10216;SDS011;5152;59.674;16.838;2023-03-04T04:50:52;1.03;;;0.30;;
10216;SDS011;5152;59.674;16.838;2023-03-04T04:53:20;1.60;;;0.70;;
10216;SDS011;5152;59.674;16.838;2023-03-04T04:55:46;6.83;;;0.53;;
10216;SDS011;5152;59.674;16.838;2023-03-04T04:58:13;3.80;;;0.70;;
10216;SDS011;5152;59.674;16.838;2023-03-04T05:00:40;4.03;;;0.97;;
10216;SDS011;5152;59.674;16.838;2023-03-04T05:03:09;1.33;;;0.60;;
10216;SDS011;5152;59.674;16.838;2023-03-04T05:05:35;0.60;;;0.40;;
10216;SDS011;5152;59.674;16.838;2023-03-04T05:08:02;0.83;;;0.60;;
10216;SDS011;5152;59.674;16.838;2023-03-04T05:10:30;0.73;;;0.37;;
10216;SDS011;5152;59.674;16.838;2023-03-04T05:12:57;1.77;;;0.40;;
10216;SDS011;5152;59.674;16.838;2023-03-04T05:15:24;0.50;;;0.50;;
10216;SDS011;5152;59.674;16.838;2023-03-04T05:17:51;3.67;;;0.93;;
10216;SDS011;5152;59.674;16.838;2023-03-04T05:20:19;1.27;;;0.57;;
10216;SDS011;5152;59.674;16.838;2023-03-04T05:22:47;1.57;;;0.60;;
10216;SDS011;5152;59.674;16.838;2023-03-04T05:25:14;1.60;;;0.60;;
10216;SDS011;5152;59.674;16.838;2023-03-04T05:27:42;1.20;;;0.67;;
10216;SDS011;5152;59.674;16.838;2023-03-04T05:30:09;2.27;;;0.67;;
10216;SDS011;5152;59.674;16.838;2023-03-04T05:32:37;1.60;;;0.73;;
10216;SDS011;5152;59.674;16.838;2023-03-04T05:35:05;1.90;;;0.53;;
10216;SDS011;5152;59.674;16.838;2023-03-04T05:37:34;1.80;;;0.53;;
10216;SDS011;5152;59.674;16.838;2023-03-04T05:40:01;1.07;;;0.60;;
10216;SDS011;5152;59.674;16.838;2023-03-04T05:42:28;1.33;;;0.60;;
10216;SDS011;5152;59.674;16.838;2023-03-04T05:44:55;2.27;;;0.83;;
10216;SDS011;5152;59.674;16.838;2023-03-04T05:47:22;1.37;;;0.83;;
10216;SDS011;5152;59.674;16.838;2023-03-04T05:49:49;0.87;;;0.50;;
10216;SDS011;5152;59.674;16.838;2023-03-04T05:52:16;3.10;;;0.80;;
10216;SDS011;5152;59.674;16.838;2023-03-04T05:54:44;1.43;;;0.70;;
10216;SDS011;5152;59.674;16.838;2023-03-04T05:57:11;0.93;;;0.60;;
10216;SDS011;5152;59.674;16.838;2023-03-04T05:59:38;4.67;;;0.60;;
10216;SDS011;5152;59.674;16.838;2023-03-04T06:02:05;0.80;;;0.37;;
10216;SDS011;5152;59.674;16.838;2023-03-04T06:04:32;0.97;;;0.43;;
10216;SDS011;5152;59.674;16.838;2023-03-04T06:06:59;2.20;;;0.60;;
10216;SDS011;5152;59.674;16.838;2023-03-04T06:09:26;3.10;;;0.60;;
10216;SDS011;5152;59.674;16.838;2023-03-04T06:11:54;0.50;;;0.27;;
10216;SDS011;5152;59.674;16.838;2023-03-04T06:14:21;0.70;;;0.23;;
10216;SDS011;5152;59.674;16.838;2023-03-04T06:16:48;2.30;;;0.60;;
10216;SDS011;5152;59.674;16.838;2023-03-04T06:19:15;1.13;;;0.60;;
10216;SDS011;5152;59.674;16.838;2023-03-04T06:21:42;2.47;;;0.90;;
10216;SDS011;5152;59.674;16.838;2023-03-04T06:24:09;1.03;;;0.63;;
10216;SDS011;5152;59.674;16.838;2023-03-04T06:26:35;1.03;;;0.30;;
10216;SDS011;5152;59.674;16.838;2023-03-04T06:29:04;0.30;;;0.30;;
10216;SDS011;5152;59.674;16.838;2023-03-04T06:31:32;1.70;;;0.60;;
10216;SDS011;5152;59.674;16.838;2023-03-04T06:33:58;1.47;;;0.80;;
10216;SDS011;5152;59.674;16.838;2023-03-04T06:36:25;0.90;;;0.60;;
10216;SDS011;5152;59.674;16.838;2023-03-04T06:38:52;1.27;;;0.53;;
10216;SDS011;5152;59.674;16.838;2023-03-04T06:41:19;3.13;;;0.77;;
10216;SDS011;5152;59.674;16.838;2023-03-04T06:43:46;2.90;;;0.70;;
10216;SDS011;5152;59.674;16.838;2023-03-04T06:46:14;0.43;;;0.43;;
10216;SDS011;5152;59.674;16.838;2023-03-04T06:48:41;1.40;;;0.33;;
10216;SDS011;5152;59.674;16.838;2023-03-04T06:51:09;1.17;;;0.63;;
10216;SDS011;5152;59.674;16.838;2023-03-04T06:53:38;0.30;;;0.30;;
10216;SDS011;5152;59.674;16.838;2023-03-04T06:56:06;1.97;;;0.60;;
10216;SDS011;5152;59.674;16.838;2023-03-04T06:58:34;2.47;;;0.70;;
10216;SDS011;5152;59.674;16.838;2023-03-04T07:01:08;0.70;;;0.40;;
10216;SDS011;5152;59.674;16.838;2023-03-04T07:03:38;2.37;;;0.33;;
10216;SDS011;5152;59.674;16.838;2023-03-04T07:06:05;1.90;;;0.70;;
10216;SDS011;5152;59.674;16.838;2023-03-04T07:08:32;1.83;;;0.50;;
10216;SDS011;5152;59.674;16.838;2023-03-04T07:10:59;1.07;;;0.63;;
10216;SDS011;5152;59.674;16.838;2023-03-04T07:13:25;1.73;;;0.60;;
10216;SDS011;5152;59.674;16.838;2023-03-04T07:15:52;1.53;;;0.70;;
10216;SDS011;5152;59.674;16.838;2023-03-04T07:18:19;1.43;;;0.70;;
10216;SDS011;5152;59.674;16.838;2023-03-04T07:20:50;2.30;;;1.07;;
10216;SDS011;5152;59.674;16.838;2023-03-04T07:23:17;2.93;;;0.90;;
10216;SDS011;5152;59.674;16.838;2023-03-04T07:25:44;0.63;;;0.47;;
10216;SDS011;5152;59.674;16.838;2023-03-04T07:28:11;0.63;;;0.57;;
10216;SDS011;5152;59.674;16.838;2023-03-04T07:30:39;1.77;;;0.87;;
10216;SDS011;5152;59.674;16.838;2023-03-04T07:33:06;1.53;;;0.40;;
10216;SDS011;5152;59.674;16.838;2023-03-04T07:35:33;1.03;;;0.60;;
10216;SDS011;5152;59.674;16.838;2023-03-04T07:38:01;2.70;;;0.70;;
10216;SDS011;5152;59.674;16.838;2023-03-04T07:40:28;2.23;;;1.50;;
10216;SDS011;5152;59.674;16.838;2023-03-04T07:42:55;2.87;;;0.90;;
10216;SDS011;5152;59.674;16.838;2023-03-04T07:45:22;4.27;;;0.90;;
10216;SDS011;5152;59.674;16.838;2023-03-04T07:47:51;1.53;;;1.20;;
10216;SDS011;5152;59.674;16.838;2023-03-04T07:50:18;3.30;;;0.73;;
10216;SDS011;5152;59.674;16.838;2023-03-04T07:52:47;2.20;;;0.80;;
10216;SDS011;5152;59.674;16.838;2023-03-04T07:55:16;3.87;;;1.00;;
10216;SDS011;5152;59.674;16.838;2023-03-04T07:57:43;0.93;;;0.67;;
10216;SDS011;5152;59.674;16.838;2023-03-04T08:00:13;4.33;;;0.67;;
10216;SDS011;5152;59.674;16.838;2023-03-04T08:02:41;4.67;;;0.80;;
10216;SDS011;5152;59.674;16.838;2023-03-04T08:05:08;2.80;;;0.73;;
10216;SDS011;5152;59.674;16.838;2023-03-04T08:07:35;1.60;;;0.70;;
10216;SDS011;5152;59.674;16.838;2023-03-04T08:10:03;0.90;;;0.53;;
10216;SDS011;5152;59.674;16.838;2023-03-04T08:12:33;1.63;;;0.80;;
10216;SDS011;5152;59.674;16.838;2023-03-04T08:15:01;3.73;;;0.70;;
10216;SDS011;5152;59.674;16.838;2023-03-04T08:17:28;2.30;;;0.60;;
10216;SDS011;5152;59.674;16.838;2023-03-04T08:19:55;1.80;;;0.50;;
10216;SDS011;5152;59.674;16.838;2023-03-04T08:22:22;0.77;;;0.60;;
10216;SDS011;5152;59.674;16.838;2023-03-04T08:24:49;1.43;;;0.73;;
10216;SDS011;5152;59.674;16.838;2023-03-04T08:27:16;2.90;;;0.63;;
10216;SDS011;5152;59.674;16.838;2023-03-04T08:29:44;2.47;;;1.27;;
10216;SDS011;5152;59.674;16.838;2023-03-04T08:32:11;2.67;;;0.67;;
10216;SDS011;5152;59.674;16.838;2023-03-04T08:34:38;3.87;;;0.90;;
10216;SDS011;5152;59.674;16.838;2023-03-04T08:37:06;1.90;;;0.60;;
10216;SDS011;5152;59.674;16.838;2023-03-04T08:39:33;1.13;;;0.60;;
10216;SDS011;5152;59.674;16.838;2023-03-04T08:42:00;6.20;;;1.27;;
10216;SDS011;5152;59.674;16.838;2023-03-04T08:44:27;6.93;;;0.80;;
10216;SDS011;5152;59.674;16.838;2023-03-04T08:46:56;8.13;;;0.77;;
10216;SDS011;5152;59.674;16.838;2023-03-04T08:49:23;3.90;;;0.87;;
10216;SDS011;5152;59.674;16.838;2023-03-04T08:51:50;1.83;;;0.80;;
10216;SDS011;5152;59.674;16.838;2023-03-04T08:54:17;1.57;;;0.60;;
10216;SDS011;5152;59.674;16.838;2023-03-04T08:56:43;1.20;;;0.50;;
10216;SDS011;5152;59.674;16.838;2023-03-04T08:59:11;9.27;;;0.70;;
10216;SDS011;5152;59.674;16.838;2023-03-04T09:01:38;2.40;;;1.10;;
10216;SDS011;5152;59.674;16.838;2023-03-04T09:04:06;4.37;;;0.70;;
10216;SDS011;5152;59.674;16.838;2023-03-04T09:06:33;3.87;;;0.87;;
10216;SDS011;5152;59.674;16.838;2023-03-04T09:09:00;1.87;;;1.00;;
10216;SDS011;5152;59.674;16.838;2023-03-04T09:11:28;5.30;;;1.20;;
10216;SDS011;5152;59.674;16.838;2023-03-04T09:13:54;2.77;;;0.70;;
10216;SDS011;5152;59.674;16.838;2023-03-04T09:16:22;3.50;;;0.83;;
10216;SDS011;5152;59.674;16.838;2023-03-04T09:18:49;3.60;;;0.70;;
10216;SDS011;5152;59.674;16.838;2023-03-04T09:21:17;2.97;;;0.90;;
10216;SDS011;5152;59.674;16.838;2023-03-04T09:23:44;2.70;;;0.47;;
10216;SDS011;5152;59.674;16.838;2023-03-04T09:26:18;2.50;;;0.70;;
10216;SDS011;5152;59.674;16.838;2023-03-04T09:28:48;1.93;;;0.80;;
10216;SDS011;5152;59.674;16.838;2023-03-04T09:31:16;1.77;;;0.60;;
10216;SDS011;5152;59.674;16.838;2023-03-04T09:33:43;9.90;;;0.83;;
10216;SDS011;5152;59.674;16.838;2023-03-04T09:36:10;3.87;;;0.80;;
10216;SDS011;5152;59.674;16.838;2023-03-04T09:38:40;4.63;;;1.17;;
10216;SDS011;5152;59.674;16.838;2023-03-04T09:41:07;2.07;;;0.83;;
10216;SDS011;5152;59.674;16.838;2023-03-04T09:43:37;1.30;;;0.60;;
10216;SDS011;5152;59.674;16.838;2023-03-04T09:46:06;2.20;;;0.60;;
10216;SDS011;5152;59.674;16.838;2023-03-04T09:48:38;1.43;;;0.60;;
10216;SDS011;5152;59.674;16.838;2023-03-04T09:51:10;2.73;;;0.37;;
10216;SDS011;5152;59.674;16.838;2023-03-04T09:53:48;1.53;;;0.60;;
10216;SDS011;5152;59.674;16.838;2023-03-04T09:56:21;0.70;;;0.40;;
10216;SDS011;5152;59.674;16.838;2023-03-04T09:58:52;4.90;;;0.80;;
10216;SDS011;5152;59.674;16.838;2023-03-04T10:01:23;4.37;;;0.80;;
10216;SDS011;5152;59.674;16.838;2023-03-04T10:03:54;2.27;;;0.80;;
10216;SDS011;5152;59.674;16.838;2023-03-04T10:06:24;3.27;;;0.77;;
10216;SDS011;5152;59.674;16.838;2023-03-04T10:08:53;1.43;;;0.63;;
10216;SDS011;5152;59.674;16.838;2023-03-04T10:11:23;4.90;;;0.60;;
10216;SDS011;5152;59.674;16.838;2023-03-04T10:16:50;1.70;;;0.53;;
10216;SDS011;5152;59.674;16.838;2023-03-04T10:19:23;2.60;;;0.60;;
10216;SDS011;5152;59.674;16.838;2023-03-04T10:21:55;2.97;;;0.60;;
10216;SDS011;5152;59.674;16.838;2023-03-04T10:24:25;1.50;;;0.47;;
10216;SDS011;5152;59.674;16.838;2023-03-04T10:26:54;2.30;;;0.70;;
10216;SDS011;5152;59.674;16.838;2023-03-04T10:29:32;3.20;;;0.70;;
10216;SDS011;5152;59.674;16.838;2023-03-04T10:31:59;3.53;;;0.73;;
10216;SDS011;5152;59.674;16.838;2023-03-04T10:34:27;1.73;;;0.40;;
10216;SDS011;5152;59.674;16.838;2023-03-04T10:36:55;2.93;;;0.50;;
10216;SDS011;5152;59.674;16.838;2023-03-04T10:39:27;2.00;;;0.80;;
10216;SDS011;5152;59.674;16.838;2023-03-04T10:41:56;1.03;;;0.67;;
10216;SDS011;5152;59.674;16.838;2023-03-04T10:44:25;1.73;;;0.67;;
10216;SDS011;5152;59.674;16.838;2023-03-04T10:46:53;1.53;;;0.53;;
10216;SDS011;5152;59.674;16.838;2023-03-04T10:49:21;2.73;;;0.50;;
10216;SDS011;5152;59.674;16.838;2023-03-04T10:51:50;5.20;;;0.87;;
10216;SDS011;5152;59.674;16.838;2023-03-04T10:54:21;0.87;;;0.40;;
10216;SDS011;5152;59.674;16.838;2023-03-04T10:56:56;2.37;;;0.60;;
10216;SDS011;5152;59.674;16.838;2023-03-04T10:59:32;2.80;;;0.50;;
10216;SDS011;5152;59.674;16.838;2023-03-04T11:02:19;2.93;;;0.73;;
10216;SDS011;5152;59.674;16.838;2023-03-04T11:04:48;2.03;;;1.00;;
10216;SDS011;5152;59.674;16.838;2023-03-04T11:07:18;4.20;;;0.60;;
10216;SDS011;5152;59.674;16.838;2023-03-04T11:09:45;3.70;;;0.77;;
10216;SDS011;5152;59.674;16.838;2023-03-04T11:12:14;1.80;;;0.47;;
10216;SDS011;5152;59.674;16.838;2023-03-04T11:14:44;2.67;;;0.73;;
10216;SDS011;5152;59.674;16.838;2023-03-04T11:17:17;5.20;;;0.60;;
10216;SDS011;5152;59.674;16.838;2023-03-04T11:19:50;1.50;;;0.83;;
10216;SDS011;5152;59.674;16.838;2023-03-04T11:22:20;2.63;;;0.77;;
10216;SDS011;5152;59.674;16.838;2023-03-04T11:24:53;1.77;;;0.63;;
10216;SDS011;5152;59.674;16.838;2023-03-04T11:27:25;2.63;;;0.80;;
10216;SDS011;5152;59.674;16.838;2023-03-04T11:33:03;3.23;;;1.00;;
10216;SDS011;5152;59.674;16.838;2023-03-04T11:35:37;1.30;;;0.50;;
10216;SDS011;5152;59.674;16.838;2023-03-04T11:38:12;1.53;;;0.60;;
10216;SDS011;5152;59.674;16.838;2023-03-04T11:40:43;2.07;;;0.53;;
10216;SDS011;5152;59.674;16.838;2023-03-04T11:43:13;4.47;;;0.60;;
10216;SDS011;5152;59.674;16.838;2023-03-04T11:45:48;1.17;;;0.40;;
10216;SDS011;5152;59.674;16.838;2023-03-04T11:48:38;1.53;;;0.70;;
10216;SDS011;5152;59.674;16.838;2023-03-04T11:51:12;4.03;;;0.83;;
10216;SDS011;5152;59.674;16.838;2023-03-04T11:53:49;1.77;;;0.70;;
10216;SDS011;5152;59.674;16.838;2023-03-04T11:56:26;3.03;;;0.80;;
10216;SDS011;5152;59.674;16.838;2023-03-04T12:02:13;2.13;;;0.60;;
10216;SDS011;5152;59.674;16.838;2023-03-04T12:05:04;1.83;;;0.70;;
10216;SDS011;5152;59.674;16.838;2023-03-04T12:07:42;1.43;;;0.70;;
10216;SDS011;5152;59.674;16.838;2023-03-04T12:10:17;4.10;;;0.50;;
10216;SDS011;5152;59.674;16.838;2023-03-04T12:12:53;3.07;;;0.70;;
10216;SDS011;5152;59.674;16.838;2023-03-04T12:15:28;2.53;;;0.57;;
10216;SDS011;5152;59.674;16.838;2023-03-04T12:18:04;2.70;;;0.80;;
10216;SDS011;5152;59.674;16.838;2023-03-04T12:20:39;2.20;;;0.57;;
10216;SDS011;5152;59.674;16.838;2023-03-04T12:23:29;3.80;;;0.90;;
10216;SDS011;5152;59.674;16.838;2023-03-04T12:26:09;3.23;;;1.27;;
10216;SDS011;5152;59.674;16.838;2023-03-04T12:28:48;7.90;;;0.70;;
10216;SDS011;5152;59.674;16.838;2023-03-04T12:31:25;2.17;;;0.50;;
10216;SDS011;5152;59.674;16.838;2023-03-04T12:34:03;0.37;;;0.30;;
10216;SDS011;5152;59.674;16.838;2023-03-04T12:36:50;1.67;;;0.60;;
10216;SDS011;5152;59.674;16.838;2023-03-04T12:39:24;1.33;;;0.40;;
10216;SDS011;5152;59.674;16.838;2023-03-04T12:41:56;0.83;;;0.30;;
10216;SDS011;5152;59.674;16.838;2023-03-04T12:44:30;2.93;;;0.90;;
10216;SDS011;5152;59.674;16.838;2023-03-04T12:47:06;3.57;;;0.70;;
10216;SDS011;5152;59.674;16.838;2023-03-04T12:49:46;1.50;;;0.43;;
10216;SDS011;5152;59.674;16.838;2023-03-04T12:52:23;2.80;;;0.93;;
10216;SDS011;5152;59.674;16.838;2023-03-04T12:54:59;1.40;;;0.70;;
10216;SDS011;5152;59.674;16.838;2023-03-04T12:57:28;1.77;;;0.60;;
10216;SDS011;5152;59.674;16.838;2023-03-04T12:59:58;1.07;;;0.30;;
10216;SDS011;5152;59.674;16.838;2023-03-04T13:02:34;3.90;;;0.57;;
10216;SDS011;5152;59.674;16.838;2023-03-04T13:05:18;2.87;;;1.17;;
10216;SDS011;5152;59.674;16.838;2023-03-04T13:07:53;3.13;;;0.40;;
10216;SDS011;5152;59.674;16.838;2023-03-04T13:10:23;0.30;;;0.30;;
10216;SDS011;5152;59.674;16.838;2023-03-04T13:12:50;0.63;;;0.63;;
10216;SDS011;5152;59.674;16.838;2023-03-04T13:15:29;2.13;;;0.60;;
10216;SDS011;5152;59.674;16.838;2023-03-04T13:17:57;4.03;;;1.13;;
10216;SDS011;5152;59.674;16.838;2023-03-04T13:20:36;2.40;;;1.27;;
10216;SDS011;5152;59.674;16.838;2023-03-04T13:23:19;5.63;;;1.73;;
10216;SDS011;5152;59.674;16.838;2023-03-04T13:28:34;1.90;;;1.20;;
10216;SDS011;5152;59.674;16.838;2023-03-04T13:33:47;4.10;;;2.03;;
10216;SDS011;5152;59.674;16.838;2023-03-04T13:39:21;6.30;;;3.73;;
10216;SDS011;5152;59.674;16.838;2023-03-04T13:41:58;2.03;;;1.77;;
10216;SDS011;5152;59.674;16.838;2023-03-04T13:50:20;10.73;;;5.13;;
10216;SDS011;5152;59.674;16.838;2023-03-04T13:52:50;9.40;;;4.67;;
10216;SDS011;5152;59.674;16.838;2023-03-04T13:55:34;10.23;;;5.03;;
10216;SDS011;5152;59.674;16.838;2023-03-04T13:58:12;6.20;;;2.57;;
10216;SDS011;5152;59.674;16.838;2023-03-04T14:00:46;4.07;;;1.37;;
10216;SDS011;5152;59.674;16.838;2023-03-04T14:03:18;11.90;;;5.23;;
10216;SDS011;5152;59.674;16.838;2023-03-04T14:05:47;13.93;;;6.23;;
10216;SDS011;5152;59.674;16.838;2023-03-04T14:08:19;10.30;;;6.60;;
10216;SDS011;5152;59.674;16.838;2023-03-04T14:10:53;8.77;;;4.43;;
10216;SDS011;5152;59.674;16.838;2023-03-04T14:13:21;11.13;;;6.77;;
10216;SDS011;5152;59.674;16.838;2023-03-04T14:15:52;7.07;;;4.77;;
10216;SDS011;5152;59.674;16.838;2023-03-04T14:18:20;31.83;;;17.37;;
10216;SDS011;5152;59.674;16.838;2023-03-04T14:20:49;19.80;;;11.57;;
10216;SDS011;5152;59.674;16.838;2023-03-04T14:23:25;12.70;;;5.43;;
10216;SDS011;5152;59.674;16.838;2023-03-04T14:26:02;29.40;;;17.30;;
10216;SDS011;5152;59.674;16.838;2023-03-04T14:28:30;13.80;;;6.83;;
10216;SDS011;5152;59.674;16.838;2023-03-04T14:30:57;30.43;;;18.53;;
10216;SDS011;5152;59.674;16.838;2023-03-04T14:33:28;15.77;;;8.63;;
10216;SDS011;5152;59.674;16.838;2023-03-04T14:35:57;37.13;;;20.17;;
10216;SDS011;5152;59.674;16.838;2023-03-04T14:38:27;38.20;;;20.43;;
10216;SDS011;5152;59.674;16.838;2023-03-04T14:40:56;18.43;;;9.67;;
10216;SDS011;5152;59.674;16.838;2023-03-04T14:43:25;28.63;;;17.27;;
10216;SDS011;5152;59.674;16.838;2023-03-04T14:45:53;21.00;;;11.23;;
10216;SDS011;5152;59.674;16.838;2023-03-04T14:48:21;24.33;;;14.47;;
10216;SDS011;5152;59.674;16.838;2023-03-04T14:50:51;36.23;;;20.23;;
10216;SDS011;5152;59.674;16.838;2023-03-04T14:53:20;17.03;;;9.07;;
10216;SDS011;5152;59.674;16.838;2023-03-04T14:55:56;22.57;;;11.90;;
10216;SDS011;5152;59.674;16.838;2023-03-04T14:58:24;11.30;;;5.97;;
10216;SDS011;5152;59.674;16.838;2023-03-04T15:01:01;19.53;;;10.63;;
10216;SDS011;5152;59.674;16.838;2023-03-04T15:03:30;3.77;;;2.03;;
10216;SDS011;5152;59.674;16.838;2023-03-04T15:06:05;30.17;;;17.60;;
10216;SDS011;5152;59.674;16.838;2023-03-04T15:08:33;39.57;;;22.00;;
10216;SDS011;5152;59.674;16.838;2023-03-04T15:11:03;10.00;;;5.53;;
10216;SDS011;5152;59.674;16.838;2023-03-04T15:13:37;21.77;;;12.07;;
10216;SDS011;5152;59.674;16.838;2023-03-04T15:16:05;25.33;;;14.83;;
10216;SDS011;5152;59.674;16.838;2023-03-04T15:18:33;20.43;;;11.47;;
10216;SDS011;5152;59.674;16.838;2023-03-04T15:21:01;42.03;;;24.47;;